createdAt,value
2018-06-05T00:00:00.425Z,9.656064
2018-06-05T00:00:12.828Z,6.437376
2018-06-05T00:00:25.303Z,6.437376
2018-06-05T00:00:37.741Z,9.656064
2018-06-05T00:00:50.162Z,9.656064
2018-06-05T00:01:02.646Z,9.656064
2018-06-05T00:01:15.088Z,8.04672
2018-06-05T00:01:27.506Z,8.04672
2018-06-05T00:01:39.921Z,9.656064
2018-06-05T00:01:52.330Z,9.656064
2018-06-05T00:02:04.732Z,8.04672
2018-06-05T00:02:17.124Z,8.04672
2018-06-05T00:02:29.561Z,8.04672
2018-06-05T00:02:41.966Z,8.04672
2018-06-05T00:02:54.392Z,8.04672
2018-06-05T00:03:06.798Z,3.218688
2018-06-05T00:03:19.186Z,3.218688
2018-06-05T00:03:31.594Z,3.218688
2018-06-05T00:03:43.976Z,9.656064
2018-06-05T00:03:56.361Z,9.656064
2018-06-05T00:04:08.753Z,8.04672
2018-06-05T00:04:21.146Z,9.656064
2018-06-05T00:04:33.522Z,9.656064
2018-06-05T00:04:45.935Z,9.656064
2018-06-05T00:04:58.325Z,9.656064
2018-06-05T00:05:10.782Z,9.656064
2018-06-05T00:05:23.177Z,9.656064
2018-06-05T00:05:35.574Z,9.656064
2018-06-05T00:05:47.982Z,9.656064
2018-06-05T00:06:00.389Z,9.656064
2018-06-05T00:06:12.801Z,9.656064
2018-06-05T00:06:25.207Z,9.656064
2018-06-05T00:06:37.612Z,9.656064
2018-06-05T00:06:50.009Z,11.265408
2018-06-05T00:07:02.449Z,12.874752
2018-06-05T00:07:14.851Z,9.656064
2018-06-05T00:07:27.291Z,9.656064
2018-06-05T00:07:39.689Z,9.656064
2018-06-05T00:07:52.090Z,9.656064
2018-06-05T00:08:04.545Z,9.656064
2018-06-05T00:08:16.962Z,12.874752
2018-06-05T00:08:29.385Z,16.09344
2018-06-05T00:08:41.774Z,16.09344
2018-06-05T00:08:54.169Z,16.09344
2018-06-05T00:09:06.566Z,8.04672
2018-06-05T00:09:18.952Z,14.484096
2018-06-05T00:09:31.357Z,16.09344
2018-06-05T00:09:43.760Z,16.09344
2018-06-05T00:09:56.152Z,16.09344
2018-06-05T00:10:08.569Z,14.484096
2018-06-05T00:10:20.960Z,14.484096
2018-06-05T00:10:33.369Z,14.484096
2018-06-05T00:10:45.778Z,14.484096
2018-06-05T00:10:58.172Z,14.484096
2018-06-05T00:11:10.639Z,8.04672
2018-06-05T00:11:23.025Z,8.04672
2018-06-05T00:11:35.423Z,8.04672
2018-06-05T00:11:47.842Z,8.04672
2018-06-05T00:12:00.266Z,8.04672
2018-06-05T00:12:12.677Z,9.656064
2018-06-05T00:12:25.136Z,9.656064
2018-06-05T00:12:37.542Z,9.656064
2018-06-05T00:12:50.111Z,9.656064
2018-06-05T00:13:02.514Z,9.656064
2018-06-05T00:13:14.926Z,11.265408
2018-06-05T00:13:27.310Z,12.874752
2018-06-05T00:13:39.691Z,12.874752
2018-06-05T00:13:52.142Z,12.874752
2018-06-05T00:14:04.549Z,6.437376
2018-06-05T00:14:16.952Z,6.437376
2018-06-05T00:14:29.337Z,6.437376
2018-06-05T00:14:41.754Z,9.656064
2018-06-05T00:14:54.139Z,9.656064
2018-06-05T00:15:06.550Z,9.656064
2018-06-05T00:15:18.933Z,9.656064
2018-06-05T00:15:31.322Z,9.656064
2018-06-05T00:15:43.720Z,9.656064
2018-06-05T00:15:56.111Z,9.656064
2018-06-05T00:16:08.523Z,14.484096
2018-06-05T00:16:20.926Z,14.484096
2018-06-05T00:16:33.323Z,14.484096
2018-06-05T00:16:45.724Z,14.484096
2018-06-05T00:16:58.129Z,14.484096
2018-06-05T00:17:10.528Z,6.437376
2018-06-05T00:17:22.920Z,8.04672
2018-06-05T00:17:35.323Z,9.656064
2018-06-05T00:17:47.819Z,9.656064
2018-06-05T00:18:00.280Z,9.656064
2018-06-05T00:18:12.668Z,11.265408
2018-06-05T00:18:25.087Z,12.874752
2018-06-05T00:18:37.501Z,12.874752
2018-06-05T00:18:49.922Z,12.874752
2018-06-05T00:19:02.329Z,12.874752
2018-06-05T00:19:14.776Z,12.874752
2018-06-05T00:19:27.177Z,12.874752
2018-06-05T00:19:39.569Z,12.874752
2018-06-05T00:19:51.975Z,17.702784
2018-06-05T00:20:04.382Z,9.656064
2018-06-05T00:20:16.789Z,9.656064
2018-06-05T00:20:29.191Z,12.874752
2018-06-05T00:20:41.589Z,14.484096
2018-06-05T00:20:53.979Z,14.484096
2018-06-05T00:21:06.381Z,11.265408
2018-06-05T00:21:18.783Z,12.874752
2018-06-05T00:21:31.177Z,12.874752
2018-06-05T00:21:43.575Z,16.09344
2018-06-05T00:21:55.993Z,16.09344
2018-06-05T00:22:08.424Z,14.484096
2018-06-05T00:22:20.804Z,14.484096
2018-06-05T00:22:33.198Z,14.484096
2018-06-05T00:22:45.620Z,14.484096
2018-06-05T00:22:58.023Z,14.484096
2018-06-05T00:23:10.419Z,11.265408
2018-06-05T00:23:22.828Z,11.265408
2018-06-05T00:23:35.251Z,16.09344
2018-06-05T00:23:47.653Z,16.09344
2018-06-05T00:24:00.039Z,16.09344
2018-06-05T00:24:12.441Z,17.702784
2018-06-05T00:24:24.836Z,17.702784
2018-06-05T00:24:37.240Z,17.702784
2018-06-05T00:24:49.648Z,17.702784
2018-06-05T00:25:02.021Z,17.702784
2018-06-05T00:25:14.441Z,14.484096
2018-06-05T00:25:26.832Z,17.702784
2018-06-05T00:25:39.220Z,17.702784
2018-06-05T00:25:51.633Z,17.702784
2018-06-05T00:26:04.031Z,8.04672
2018-06-05T00:26:16.452Z,11.265408
2018-06-05T00:26:28.881Z,12.874752
2018-06-05T00:26:41.275Z,12.874752
2018-06-05T00:26:53.865Z,12.874752
2018-06-05T00:27:06.775Z,3.218688
2018-06-05T00:27:19.171Z,8.04672
2018-06-05T00:27:31.577Z,8.04672
2018-06-05T00:27:44.030Z,11.265408
2018-06-05T00:27:56.467Z,11.265408
2018-06-05T00:28:08.895Z,9.656064
2018-06-05T00:28:21.317Z,9.656064
2018-06-05T00:28:33.714Z,9.656064
2018-06-05T00:28:46.116Z,9.656064
2018-06-05T00:28:58.508Z,12.874752
2018-06-05T00:29:10.902Z,12.874752
2018-06-05T00:29:23.295Z,17.702784
2018-06-05T00:29:35.696Z,17.702784
2018-06-05T00:29:48.087Z,17.702784
2018-06-05T00:30:00.500Z,17.702784
2018-06-05T00:30:12.902Z,9.656064
2018-06-05T00:30:25.315Z,11.265408
2018-06-05T00:30:37.728Z,16.09344
2018-06-05T00:30:50.132Z,16.09344
2018-06-05T00:31:02.533Z,16.09344
2018-06-05T00:31:15.100Z,11.265408
2018-06-05T00:31:27.495Z,11.265408
2018-06-05T00:31:39.905Z,11.265408
2018-06-05T00:31:52.296Z,14.484096
2018-06-05T00:32:04.683Z,22.530816
2018-06-05T00:32:17.073Z,22.530816
2018-06-05T00:32:29.464Z,22.530816
2018-06-05T00:32:41.860Z,22.530816
2018-06-05T00:32:54.273Z,22.530816
2018-06-05T00:33:06.681Z,12.874752
2018-06-05T00:33:19.106Z,16.09344
2018-06-05T00:33:31.498Z,16.09344
2018-06-05T00:33:43.893Z,16.09344
2018-06-05T00:33:56.297Z,16.09344
2018-06-05T00:34:08.717Z,11.265408
2018-06-05T00:34:21.102Z,11.265408
2018-06-05T00:34:33.525Z,11.265408
2018-06-05T00:34:45.925Z,11.265408
2018-06-05T00:34:58.506Z,11.265408
2018-06-05T00:35:10.952Z,8.04672
2018-06-05T00:35:23.377Z,17.702784
2018-06-05T00:35:35.820Z,17.702784
2018-06-05T00:35:48.223Z,17.702784
2018-06-05T00:36:00.628Z,17.702784
2018-06-05T00:36:13.013Z,8.04672
2018-06-05T00:36:25.401Z,11.265408
2018-06-05T00:36:37.803Z,11.265408
2018-06-05T00:36:50.188Z,11.265408
2018-06-05T00:37:02.616Z,11.265408
2018-06-05T00:37:15.028Z,9.656064
2018-06-05T00:37:27.578Z,9.656064
2018-06-05T00:37:39.968Z,9.656064
2018-06-05T00:37:52.386Z,9.656064
2018-06-05T00:38:04.794Z,11.265408
2018-06-05T00:38:17.228Z,11.265408
2018-06-05T00:38:29.632Z,11.265408
2018-06-05T00:38:42.047Z,11.265408
2018-06-05T00:38:54.442Z,11.265408
2018-06-05T00:39:06.850Z,4.828032
2018-06-05T00:39:19.250Z,4.828032
2018-06-05T00:39:31.720Z,8.04672
2018-06-05T00:39:44.099Z,8.04672
2018-06-05T00:39:56.481Z,9.656064
2018-06-05T00:40:08.905Z,9.656064
2018-06-05T00:40:21.311Z,9.656064
2018-06-05T00:40:33.738Z,9.656064
2018-06-05T00:40:46.148Z,9.656064
2018-06-05T00:40:58.536Z,9.656064
2018-06-05T00:41:11.001Z,8.04672
2018-06-05T00:41:23.425Z,8.04672
2018-06-05T00:41:35.812Z,14.484096
2018-06-05T00:41:48.182Z,14.484096
2018-06-05T00:42:00.593Z,14.484096
2018-06-05T00:42:12.981Z,8.04672
2018-06-05T00:42:25.411Z,8.04672
2018-06-05T00:42:37.803Z,8.04672
2018-06-05T00:42:50.201Z,8.04672
2018-06-05T00:43:02.609Z,8.04672
2018-06-05T00:43:15.043Z,8.04672
2018-06-05T00:43:27.450Z,9.656064
2018-06-05T00:43:39.849Z,11.265408
2018-06-05T00:43:52.369Z,11.265408
2018-06-05T00:44:04.773Z,19.312128
2018-06-05T00:44:17.186Z,19.312128
2018-06-05T00:44:29.616Z,19.312128
2018-06-05T00:44:42.174Z,19.312128
2018-06-05T00:44:54.575Z,19.312128
2018-06-05T00:45:07.007Z,12.874752
2018-06-05T00:45:19.420Z,12.874752
2018-06-05T00:45:31.826Z,14.484096
2018-06-05T00:45:44.266Z,14.484096
2018-06-05T00:45:56.668Z,14.484096
2018-06-05T00:46:09.107Z,9.656064
2018-06-05T00:46:21.522Z,12.874752
2018-06-05T00:46:33.908Z,14.484096
2018-06-05T00:46:46.532Z,14.484096
2018-06-05T00:46:58.924Z,14.484096
2018-06-05T00:47:11.349Z,11.265408
2018-06-05T00:47:23.763Z,11.265408
2018-06-05T00:47:36.189Z,11.265408
2018-06-05T00:47:48.612Z,11.265408
2018-06-05T00:48:01.064Z,11.265408
2018-06-05T00:48:13.467Z,14.484096
2018-06-05T00:48:25.865Z,14.484096
2018-06-05T00:48:38.408Z,16.09344
2018-06-05T00:48:50.877Z,16.09344
2018-06-05T00:49:03.274Z,16.09344
2018-06-05T00:49:15.680Z,11.265408
2018-06-05T00:49:28.089Z,11.265408
2018-06-05T00:49:40.525Z,12.874752
2018-06-05T00:49:52.929Z,14.484096
2018-06-05T00:50:05.333Z,8.04672
2018-06-05T00:50:17.758Z,8.04672
2018-06-05T00:50:30.177Z,8.04672
2018-06-05T00:50:42.571Z,9.656064
2018-06-05T00:50:54.979Z,9.656064
2018-06-05T00:51:07.379Z,11.265408
2018-06-05T00:51:19.789Z,11.265408
2018-06-05T00:51:32.177Z,11.265408
2018-06-05T00:51:44.590Z,12.874752
2018-06-05T00:51:56.991Z,12.874752
2018-06-05T00:52:09.392Z,11.265408
2018-06-05T00:52:21.822Z,12.874752
2018-06-05T00:52:34.226Z,12.874752
2018-06-05T00:52:46.618Z,12.874752
2018-06-05T00:52:59.031Z,12.874752
2018-06-05T00:53:11.448Z,12.874752
2018-06-05T00:53:23.831Z,19.312128
2018-06-05T00:53:36.265Z,19.312128
2018-06-05T00:53:48.667Z,19.312128
2018-06-05T00:54:01.054Z,19.312128
2018-06-05T00:54:13.445Z,11.265408
2018-06-05T00:54:25.841Z,12.874752
2018-06-05T00:54:38.241Z,12.874752
2018-06-05T00:54:50.648Z,14.484096
2018-06-05T00:55:03.082Z,14.484096
2018-06-05T00:55:15.485Z,11.265408
2018-06-05T00:55:27.868Z,11.265408
2018-06-05T00:55:40.250Z,11.265408
2018-06-05T00:55:52.666Z,11.265408
2018-06-05T00:56:05.040Z,11.265408
2018-06-05T00:56:17.445Z,12.874752
2018-06-05T00:56:29.848Z,12.874752
2018-06-05T00:56:42.288Z,12.874752
2018-06-05T00:56:54.699Z,14.484096
2018-06-05T00:57:07.106Z,17.702784
2018-06-05T00:57:19.519Z,17.702784
2018-06-05T00:57:31.907Z,17.702784
2018-06-05T00:57:44.314Z,17.702784
2018-06-05T00:57:56.733Z,17.702784
2018-06-05T00:58:09.125Z,9.656064
2018-06-05T00:58:21.505Z,11.265408
2018-06-05T00:58:33.918Z,12.874752
2018-06-05T00:58:46.306Z,12.874752
2018-06-05T00:58:58.734Z,14.484096
2018-06-05T00:59:11.134Z,12.874752
2018-06-05T00:59:23.550Z,12.874752
2018-06-05T00:59:35.971Z,14.484096
2018-06-05T00:59:48.524Z,14.484096
2018-06-05T01:00:00.911Z,14.484096
2018-06-05T01:00:13.333Z,11.265408
2018-06-05T01:00:25.829Z,19.312128
2018-06-05T01:00:38.282Z,20.921472
2018-06-05T01:00:50.728Z,20.921472
2018-06-05T01:01:03.168Z,20.921472
2018-06-05T01:01:15.595Z,14.484096
2018-06-05T01:01:28.007Z,16.09344
2018-06-05T01:01:40.438Z,20.921472
2018-06-05T01:01:52.843Z,20.921472
2018-06-05T01:02:05.271Z,11.265408
2018-06-05T01:02:17.688Z,12.874752
2018-06-05T01:02:30.198Z,14.484096
2018-06-05T01:02:42.606Z,14.484096
2018-06-05T01:02:55.077Z,14.484096
2018-06-05T01:03:07.482Z,12.874752
2018-06-05T01:03:19.895Z,12.874752
2018-06-05T01:03:32.316Z,12.874752
2018-06-05T01:03:44.713Z,12.874752
2018-06-05T01:03:57.110Z,12.874752
2018-06-05T01:04:09.520Z,9.656064
2018-06-05T01:04:21.896Z,12.874752
2018-06-05T01:04:34.289Z,12.874752
2018-06-05T01:04:46.683Z,12.874752
2018-06-05T01:04:59.085Z,17.702784
2018-06-05T01:05:11.532Z,14.484096
2018-06-05T01:05:23.926Z,16.09344
2018-06-05T01:05:36.319Z,16.09344
2018-06-05T01:05:48.728Z,16.09344
2018-06-05T01:06:01.138Z,16.09344
2018-06-05T01:06:13.533Z,8.04672
2018-06-05T01:06:25.969Z,8.04672
2018-06-05T01:06:38.357Z,16.09344
2018-06-05T01:06:50.740Z,16.09344
2018-06-05T01:07:03.148Z,16.09344
2018-06-05T01:07:15.554Z,9.656064
2018-06-05T01:07:28.050Z,9.656064
2018-06-05T01:07:40.464Z,9.656064
2018-06-05T01:07:52.847Z,9.656064
2018-06-05T01:08:05.279Z,8.04672
2018-06-05T01:08:17.718Z,9.656064
2018-06-05T01:08:30.111Z,9.656064
2018-06-05T01:08:42.519Z,9.656064
2018-06-05T01:08:54.929Z,9.656064
2018-06-05T01:09:07.317Z,9.656064
2018-06-05T01:09:19.728Z,9.656064
2018-06-05T01:09:32.132Z,9.656064
2018-06-05T01:09:44.527Z,11.265408
2018-06-05T01:09:56.926Z,11.265408
2018-06-05T01:10:09.347Z,12.874752
2018-06-05T01:10:21.765Z,12.874752
2018-06-05T01:10:34.147Z,16.09344
2018-06-05T01:10:46.557Z,16.09344
2018-06-05T01:10:58.979Z,16.09344
2018-06-05T01:11:11.433Z,14.484096
2018-06-05T01:11:23.834Z,14.484096
2018-06-05T01:11:36.248Z,16.09344
2018-06-05T01:11:48.652Z,16.09344
2018-06-05T01:12:01.070Z,16.09344
2018-06-05T01:12:13.456Z,16.09344
2018-06-05T01:12:25.892Z,17.702784
2018-06-05T01:12:38.303Z,17.702784
2018-06-05T01:12:50.849Z,17.702784
2018-06-05T01:13:03.458Z,16.09344
2018-06-05T01:13:15.880Z,16.09344
2018-06-05T01:13:28.266Z,16.09344
2018-06-05T01:13:40.660Z,16.09344
2018-06-05T01:13:53.067Z,16.09344
2018-06-05T01:14:05.488Z,12.874752
2018-06-05T01:14:17.892Z,12.874752
2018-06-05T01:14:30.290Z,12.874752
2018-06-05T01:14:42.683Z,14.484096
2018-06-05T01:14:55.087Z,14.484096
2018-06-05T01:15:07.503Z,16.09344
2018-06-05T01:15:19.889Z,16.09344
2018-06-05T01:15:32.307Z,16.09344
2018-06-05T01:15:44.693Z,16.09344
2018-06-05T01:15:57.081Z,16.09344
2018-06-05T01:16:09.477Z,8.04672
2018-06-05T01:16:21.989Z,9.656064
2018-06-05T01:16:34.387Z,9.656064
2018-06-05T01:16:46.807Z,9.656064
2018-06-05T01:16:59.208Z,9.656064
2018-06-05T01:17:11.602Z,9.656064
2018-06-05T01:17:24.011Z,9.656064
2018-06-05T01:17:36.413Z,14.484096
2018-06-05T01:17:48.906Z,14.484096
2018-06-05T01:18:01.307Z,14.484096
2018-06-05T01:18:13.730Z,14.484096
2018-06-05T01:18:26.150Z,14.484096
2018-06-05T01:18:38.528Z,16.09344
2018-06-05T01:18:50.937Z,16.09344
2018-06-05T01:19:03.388Z,14.484096
2018-06-05T01:19:15.798Z,14.484096
2018-06-05T01:19:28.203Z,16.09344
2018-06-05T01:19:40.589Z,16.09344
2018-06-05T01:19:52.994Z,16.09344
2018-06-05T01:20:05.395Z,9.656064
2018-06-05T01:20:17.790Z,12.874752
2018-06-05T01:20:30.230Z,12.874752
2018-06-05T01:20:42.635Z,12.874752
2018-06-05T01:20:55.031Z,12.874752
2018-06-05T01:21:07.421Z,6.437376
2018-06-05T01:21:19.827Z,9.656064
2018-06-05T01:21:32.231Z,9.656064
2018-06-05T01:21:44.641Z,9.656064
2018-06-05T01:21:57.056Z,12.874752
2018-06-05T01:22:09.435Z,8.04672
2018-06-05T01:22:21.841Z,17.702784
2018-06-05T01:22:34.266Z,17.702784
2018-06-05T01:22:46.703Z,17.702784
2018-06-05T01:22:59.132Z,17.702784
2018-06-05T01:23:11.581Z,12.874752
2018-06-05T01:23:23.981Z,12.874752
2018-06-05T01:23:36.376Z,12.874752
2018-06-05T01:23:48.802Z,12.874752
2018-06-05T01:24:01.207Z,12.874752
2018-06-05T01:24:13.616Z,8.04672
2018-06-05T01:24:26.005Z,8.04672
2018-06-05T01:24:38.419Z,8.04672
2018-06-05T01:24:50.827Z,9.656064
2018-06-05T01:25:03.226Z,14.484096
2018-06-05T01:25:15.717Z,17.702784
2018-06-05T01:25:28.119Z,17.702784
2018-06-05T01:25:40.510Z,17.702784
2018-06-05T01:25:52.957Z,17.702784
2018-06-05T01:26:05.351Z,8.04672
2018-06-05T01:26:17.762Z,8.04672
2018-06-05T01:26:30.161Z,8.04672
2018-06-05T01:26:42.558Z,8.04672
2018-06-05T01:26:54.976Z,8.04672
2018-06-05T01:27:07.378Z,9.656064
2018-06-05T01:27:19.785Z,11.265408
2018-06-05T01:27:32.186Z,11.265408
2018-06-05T01:27:44.567Z,11.265408
2018-06-05T01:27:56.955Z,12.874752
2018-06-05T01:28:09.350Z,11.265408
2018-06-05T01:28:21.736Z,11.265408
2018-06-05T01:28:34.131Z,11.265408
2018-06-05T01:28:46.547Z,11.265408
2018-06-05T01:28:58.940Z,11.265408
2018-06-05T01:29:11.352Z,9.656064
2018-06-05T01:29:23.750Z,9.656064
2018-06-05T01:29:36.137Z,12.874752
2018-06-05T01:29:48.535Z,12.874752
2018-06-05T01:30:00.924Z,16.09344
2018-06-05T01:30:13.376Z,12.874752
2018-06-05T01:30:25.805Z,16.09344
2018-06-05T01:30:38.216Z,17.702784
2018-06-05T01:30:50.618Z,17.702784
2018-06-05T01:31:03.010Z,17.702784
2018-06-05T01:31:15.543Z,9.656064
2018-06-05T01:31:27.974Z,9.656064
2018-06-05T01:31:40.354Z,9.656064
2018-06-05T01:31:52.751Z,20.921472
2018-06-05T01:32:05.148Z,12.874752
2018-06-05T01:32:17.548Z,12.874752
2018-06-05T01:32:29.976Z,12.874752
2018-06-05T01:32:42.392Z,16.09344
2018-06-05T01:32:54.808Z,16.09344
2018-06-05T01:33:07.242Z,12.874752
2018-06-05T01:33:19.648Z,16.09344
2018-06-05T01:33:32.049Z,16.09344
2018-06-05T01:33:44.447Z,16.09344
2018-06-05T01:33:56.878Z,16.09344
2018-06-05T01:34:09.297Z,14.484096
2018-06-05T01:34:21.677Z,14.484096
2018-06-05T01:34:34.079Z,16.09344
2018-06-05T01:34:46.464Z,16.09344
2018-06-05T01:34:59.509Z,16.09344
2018-06-05T01:35:11.937Z,11.265408
2018-06-05T01:35:24.350Z,14.484096
2018-06-05T01:35:36.748Z,14.484096
2018-06-05T01:35:49.166Z,16.09344
2018-06-05T01:36:01.554Z,16.09344
2018-06-05T01:36:13.977Z,14.484096
2018-06-05T01:36:26.391Z,16.09344
2018-06-05T01:36:38.796Z,17.702784
2018-06-05T01:36:51.200Z,17.702784
2018-06-05T01:37:03.598Z,9.656064
2018-06-05T01:37:15.997Z,9.656064
2018-06-05T01:37:28.406Z,17.702784
2018-06-05T01:37:40.796Z,17.702784
2018-06-05T01:37:53.205Z,17.702784
2018-06-05T01:38:05.597Z,9.656064
2018-06-05T01:38:17.991Z,16.09344
2018-06-05T01:38:30.423Z,20.921472
2018-06-05T01:38:42.830Z,20.921472
2018-06-05T01:38:55.273Z,20.921472
2018-06-05T01:39:07.667Z,14.484096
2018-06-05T01:39:20.085Z,14.484096
2018-06-05T01:39:32.635Z,14.484096
2018-06-05T01:39:45.041Z,14.484096
2018-06-05T01:39:57.453Z,14.484096
2018-06-05T01:40:09.894Z,8.04672
2018-06-05T01:40:22.287Z,12.874752
2018-06-05T01:40:34.676Z,19.312128
2018-06-05T01:40:47.074Z,20.921472
2018-06-05T01:40:59.470Z,20.921472
2018-06-05T01:41:11.880Z,19.312128
2018-06-05T01:41:24.296Z,19.312128
2018-06-05T01:41:36.699Z,19.312128
2018-06-05T01:41:49.131Z,19.312128
2018-06-05T01:42:01.537Z,19.312128
2018-06-05T01:42:13.906Z,11.265408
2018-06-05T01:42:26.309Z,12.874752
2018-06-05T01:42:38.696Z,16.09344
2018-06-05T01:42:51.081Z,16.09344
2018-06-05T01:43:03.500Z,8.04672
2018-06-05T01:43:15.895Z,9.656064
2018-06-05T01:43:28.271Z,9.656064
2018-06-05T01:43:40.655Z,9.656064
2018-06-05T01:43:53.061Z,9.656064
2018-06-05T01:44:05.469Z,8.04672
2018-06-05T01:44:17.867Z,8.04672
2018-06-05T01:44:30.435Z,8.04672
2018-06-05T01:44:42.877Z,8.04672
2018-06-05T01:44:55.442Z,8.04672
2018-06-05T01:45:07.838Z,9.656064
2018-06-05T01:45:20.499Z,9.656064
2018-06-05T01:45:32.912Z,9.656064
2018-06-05T01:45:45.312Z,14.484096
2018-06-05T01:45:57.701Z,19.312128
2018-06-05T01:46:10.118Z,14.484096
2018-06-05T01:46:22.528Z,16.09344
2018-06-05T01:46:34.953Z,16.09344
2018-06-05T01:46:47.360Z,16.09344
2018-06-05T01:46:59.772Z,16.09344
2018-06-05T01:47:12.197Z,9.656064
2018-06-05T01:47:24.730Z,12.874752
2018-06-05T01:47:37.162Z,12.874752
2018-06-05T01:47:49.558Z,16.09344
2018-06-05T01:48:01.983Z,16.09344
2018-06-05T01:48:14.423Z,11.265408
2018-06-05T01:48:26.972Z,14.484096
2018-06-05T01:48:39.362Z,14.484096
2018-06-05T01:48:51.760Z,14.484096
2018-06-05T01:49:04.193Z,11.265408
2018-06-05T01:49:16.630Z,11.265408
2018-06-05T01:49:29.034Z,11.265408
2018-06-05T01:49:41.450Z,12.874752
2018-06-05T01:49:53.895Z,12.874752
2018-06-05T01:50:06.351Z,6.437376
2018-06-05T01:50:18.743Z,6.437376
2018-06-05T01:50:31.137Z,9.656064
2018-06-05T01:50:43.534Z,14.484096
2018-06-05T01:50:55.940Z,14.484096
2018-06-05T01:51:08.368Z,8.04672
2018-06-05T01:51:20.778Z,8.04672
2018-06-05T01:51:33.256Z,8.04672
2018-06-05T01:51:45.658Z,9.656064
2018-06-05T01:51:58.066Z,9.656064
2018-06-05T01:52:10.537Z,9.656064
2018-06-05T01:52:22.963Z,9.656064
2018-06-05T01:52:35.393Z,11.265408
2018-06-05T01:52:47.836Z,11.265408
2018-06-05T01:53:00.242Z,12.874752
2018-06-05T01:53:12.678Z,12.874752
2018-06-05T01:53:25.080Z,12.874752
2018-06-05T01:53:37.480Z,12.874752
2018-06-05T01:53:49.915Z,12.874752
2018-06-05T01:54:02.319Z,12.874752
2018-06-05T01:54:14.718Z,8.04672
2018-06-05T01:54:27.137Z,8.04672
2018-06-05T01:54:39.540Z,9.656064
2018-06-05T01:54:51.942Z,9.656064
2018-06-05T01:55:04.353Z,12.874752
2018-06-05T01:55:16.746Z,12.874752
2018-06-05T01:55:29.164Z,12.874752
2018-06-05T01:55:41.570Z,12.874752
2018-06-05T01:55:53.963Z,12.874752
2018-06-05T01:56:06.369Z,8.04672
2018-06-05T01:56:18.757Z,9.656064
2018-06-05T01:56:31.168Z,9.656064
2018-06-05T01:56:43.620Z,9.656064
2018-06-05T01:56:56.043Z,9.656064
2018-06-05T01:57:08.481Z,8.04672
2018-06-05T01:57:20.928Z,8.04672
2018-06-05T01:57:33.343Z,8.04672
2018-06-05T01:57:45.776Z,8.04672
2018-06-05T01:57:58.182Z,8.04672
2018-06-05T01:58:10.587Z,6.437376
2018-06-05T01:58:22.997Z,6.437376
2018-06-05T01:58:35.409Z,6.437376
2018-06-05T01:58:47.815Z,6.437376
2018-06-05T01:59:00.231Z,6.437376
2018-06-05T01:59:12.638Z,4.828032
2018-06-05T01:59:25.013Z,6.437376
2018-06-05T01:59:37.416Z,9.656064
2018-06-05T01:59:49.894Z,12.874752
2018-06-05T02:00:02.355Z,12.874752
2018-06-05T02:00:14.756Z,11.265408
2018-06-05T02:00:27.369Z,11.265408
2018-06-05T02:00:39.780Z,11.265408
2018-06-05T02:00:52.208Z,11.265408
2018-06-05T02:01:04.675Z,12.874752
2018-06-05T02:01:17.107Z,12.874752
2018-06-05T02:01:29.546Z,12.874752
2018-06-05T02:01:41.986Z,12.874752
2018-06-05T02:01:54.433Z,12.874752
2018-06-05T02:02:06.844Z,12.874752
2018-06-05T02:02:19.254Z,12.874752
2018-06-05T02:02:31.671Z,12.874752
2018-06-05T02:02:44.074Z,12.874752
2018-06-05T02:02:56.492Z,12.874752
2018-06-05T02:03:08.896Z,9.656064
2018-06-05T02:03:21.290Z,9.656064
2018-06-05T02:03:33.701Z,11.265408
2018-06-05T02:03:46.103Z,11.265408
2018-06-05T02:03:58.497Z,11.265408
2018-06-05T02:04:10.908Z,8.04672
2018-06-05T02:04:23.349Z,8.04672
2018-06-05T02:04:35.767Z,8.04672
2018-06-05T02:04:48.183Z,8.04672
2018-06-05T02:05:00.579Z,8.04672
2018-06-05T02:05:12.979Z,6.437376
2018-06-05T02:05:25.388Z,8.04672
2018-06-05T02:05:37.791Z,8.04672
2018-06-05T02:05:50.186Z,8.04672
2018-06-05T02:06:02.604Z,8.04672
2018-06-05T02:06:15.044Z,3.218688
2018-06-05T02:06:27.443Z,6.437376
2018-06-05T02:06:39.842Z,6.437376
2018-06-05T02:06:52.239Z,12.874752
2018-06-05T02:07:04.657Z,8.04672
2018-06-05T02:07:17.071Z,8.04672
2018-06-05T02:07:29.481Z,11.265408
2018-06-05T02:07:41.872Z,11.265408
2018-06-05T02:07:54.278Z,11.265408
2018-06-05T02:08:06.682Z,3.218688
2018-06-05T02:08:19.069Z,3.218688
2018-06-05T02:08:31.547Z,4.828032
2018-06-05T02:08:43.936Z,6.437376
2018-06-05T02:08:56.334Z,9.656064
2018-06-05T02:09:08.730Z,6.437376
2018-06-05T02:09:21.123Z,14.484096
2018-06-05T02:09:33.520Z,16.09344
2018-06-05T02:09:45.924Z,16.09344
2018-06-05T02:09:58.296Z,16.09344
2018-06-05T02:10:10.708Z,14.484096
2018-06-05T02:10:23.089Z,14.484096
2018-06-05T02:10:35.605Z,14.484096
2018-06-05T02:10:47.987Z,14.484096
2018-06-05T02:11:00.399Z,14.484096
2018-06-05T02:11:12.810Z,9.656064
2018-06-05T02:11:25.209Z,12.874752
2018-06-05T02:11:37.616Z,12.874752
2018-06-05T02:11:50.006Z,12.874752
2018-06-05T02:12:02.403Z,12.874752
2018-06-05T02:12:14.806Z,8.04672
2018-06-05T02:12:27.210Z,9.656064
2018-06-05T02:12:39.610Z,9.656064
2018-06-05T02:12:52.149Z,9.656064
2018-06-05T02:13:04.635Z,6.437376
2018-06-05T02:13:17.046Z,8.04672
2018-06-05T02:13:29.471Z,8.04672
2018-06-05T02:13:41.885Z,8.04672
2018-06-05T02:13:54.310Z,9.656064
2018-06-05T02:14:06.723Z,8.04672
2018-06-05T02:14:19.107Z,11.265408
2018-06-05T02:14:31.496Z,11.265408
2018-06-05T02:14:43.909Z,11.265408
2018-06-05T02:14:56.301Z,11.265408
2018-06-05T02:15:08.733Z,6.437376
2018-06-05T02:15:21.134Z,6.437376
2018-06-05T02:15:33.679Z,6.437376
2018-06-05T02:15:46.101Z,6.437376
2018-06-05T02:15:58.523Z,8.04672
2018-06-05T02:16:10.923Z,9.656064
2018-06-05T02:16:23.339Z,11.265408
2018-06-05T02:16:35.740Z,11.265408
2018-06-05T02:16:48.140Z,11.265408
2018-06-05T02:17:00.554Z,11.265408
2018-06-05T02:17:12.934Z,9.656064
2018-06-05T02:17:25.351Z,11.265408
2018-06-05T02:17:37.911Z,12.874752
2018-06-05T02:17:50.302Z,12.874752
2018-06-05T02:18:02.725Z,12.874752
2018-06-05T02:18:15.114Z,8.04672
2018-06-05T02:18:27.538Z,8.04672
2018-06-05T02:18:39.928Z,8.04672
2018-06-05T02:18:52.324Z,9.656064
2018-06-05T02:19:04.742Z,6.437376
2018-06-05T02:19:17.148Z,6.437376
2018-06-05T02:19:29.539Z,6.437376
2018-06-05T02:19:41.966Z,6.437376
2018-06-05T02:19:54.362Z,14.484096
2018-06-05T02:20:06.782Z,12.874752
2018-06-05T02:20:19.205Z,12.874752
2018-06-05T02:20:31.584Z,12.874752
2018-06-05T02:20:43.983Z,12.874752
2018-06-05T02:20:56.433Z,12.874752
2018-06-05T02:21:08.816Z,9.656064
2018-06-05T02:21:21.195Z,9.656064
2018-06-05T02:21:33.580Z,11.265408
2018-06-05T02:21:45.989Z,11.265408
2018-06-05T02:21:58.407Z,11.265408
2018-06-05T02:22:10.811Z,9.656064
2018-06-05T02:22:23.219Z,9.656064
2018-06-05T02:22:35.635Z,9.656064
2018-06-05T02:22:48.035Z,9.656064
2018-06-05T02:23:00.457Z,12.874752
2018-06-05T02:23:12.871Z,12.874752
2018-06-05T02:23:25.299Z,12.874752
2018-06-05T02:23:37.713Z,12.874752
2018-06-05T02:23:50.102Z,12.874752
2018-06-05T02:24:02.507Z,12.874752